sensor_id;sensor_type;location;lat;lon;timestamp;P1;durP1;ratioP1;P2;durP2;ratioP2
75156;SDS011;63736;50.076;8.198;2023-05-21T00:01:05;1589.30;;;626.83;;
75156;SDS011;63736;50.076;8.198;2023-05-21T00:03:30;1575.03;;;624.00;;
75156;SDS011;63736;50.076;8.198;2023-05-21T00:05:58;1580.77;;;626.43;;
75156;SDS011;63736;50.076;8.198;2023-05-21T00:08:25;1590.28;;;629.72;;
75156;SDS011;63736;50.076;8.198;2023-05-21T00:10:51;1586.93;;;627.23;;
75156;SDS011;63736;50.076;8.198;2023-05-21T00:13:16;1585.47;;;626.27;;
75156;SDS011;63736;50.076;8.198;2023-05-21T00:15:41;1577.88;;;623.03;;
75156;SDS011;63736;50.076;8.198;2023-05-21T00:18:07;1581.83;;;624.53;;
75156;SDS011;63736;50.076;8.198;2023-05-21T00:20:32;1576.83;;;620.70;;
75156;SDS011;63736;50.076;8.198;2023-05-21T00:22:58;1583.20;;;633.57;;
75156;SDS011;63736;50.076;8.198;2023-05-21T00:25:23;1585.78;;;632.30;;
75156;SDS011;63736;50.076;8.198;2023-05-21T00:27:49;1587.33;;;636.47;;
75156;SDS011;63736;50.076;8.198;2023-05-21T00:30:14;1591.33;;;629.47;;
75156;SDS011;63736;50.076;8.198;2023-05-21T00:32:40;1577.93;;;629.05;;
75156;SDS011;63736;50.076;8.198;2023-05-21T00:35:06;1574.83;;;623.30;;
75156;SDS011;63736;50.076;8.198;2023-05-21T00:37:34;1594.95;;;632.25;;
75156;SDS011;63736;50.076;8.198;2023-05-21T00:40:00;1579.60;;;631.23;;
75156;SDS011;63736;50.076;8.198;2023-05-21T00:42:28;1582.20;;;625.47;;
75156;SDS011;63736;50.076;8.198;2023-05-21T00:44:54;1584.65;;;632.28;;
75156;SDS011;63736;50.076;8.198;2023-05-21T00:47:20;1583.33;;;634.23;;
75156;SDS011;63736;50.076;8.198;2023-05-21T00:49:46;1577.78;;;627.78;;
75156;SDS011;63736;50.076;8.198;2023-05-21T00:52:13;1579.17;;;632.00;;
75156;SDS011;63736;50.076;8.198;2023-05-21T00:54:44;1578.18;;;633.33;;
75156;SDS011;63736;50.076;8.198;2023-05-21T00:57:10;1578.80;;;629.38;;
75156;SDS011;63736;50.076;8.198;2023-05-21T00:59:35;1580.80;;;628.47;;
75156;SDS011;63736;50.076;8.198;2023-05-21T01:02:00;1584.03;;;633.47;;
75156;SDS011;63736;50.076;8.198;2023-05-21T01:04:30;1579.68;;;631.00;;
75156;SDS011;63736;50.076;8.198;2023-05-21T01:06:56;1583.82;;;628.00;;
75156;SDS011;63736;50.076;8.198;2023-05-21T01:09:22;1580.35;;;629.47;;
75156;SDS011;63736;50.076;8.198;2023-05-21T01:11:49;1578.13;;;626.53;;
75156;SDS011;63736;50.076;8.198;2023-05-21T01:14:16;1582.43;;;631.67;;
75156;SDS011;63736;50.076;8.198;2023-05-21T01:16:43;1576.85;;;629.60;;
75156;SDS011;63736;50.076;8.198;2023-05-21T01:19:14;1575.35;;;628.05;;
75156;SDS011;63736;50.076;8.198;2023-05-21T01:21:44;1582.72;;;631.65;;
75156;SDS011;63736;50.076;8.198;2023-05-21T01:24:11;1568.40;;;629.10;;
75156;SDS011;63736;50.076;8.198;2023-05-21T01:26:36;1568.30;;;624.03;;
75156;SDS011;63736;50.076;8.198;2023-05-21T01:29:03;1570.85;;;632.33;;
75156;SDS011;63736;50.076;8.198;2023-05-21T01:31:33;1562.70;;;622.73;;
75156;SDS011;63736;50.076;8.198;2023-05-21T01:34:04;1574.35;;;630.20;;
75156;SDS011;63736;50.076;8.198;2023-05-21T01:36:34;1575.07;;;631.65;;
75156;SDS011;63736;50.076;8.198;2023-05-21T01:39:13;1581.00;;;635.75;;
75156;SDS011;63736;50.076;8.198;2023-05-21T01:41:44;1573.25;;;627.95;;
75156;SDS011;63736;50.076;8.198;2023-05-21T01:44:10;1580.30;;;637.27;;
75156;SDS011;63736;50.076;8.198;2023-05-21T01:46:36;1570.90;;;635.63;;
75156;SDS011;63736;50.076;8.198;2023-05-21T01:49:03;1574.30;;;637.63;;
75156;SDS011;63736;50.076;8.198;2023-05-21T01:51:29;1575.97;;;642.63;;
75156;SDS011;63736;50.076;8.198;2023-05-21T01:53:55;1578.05;;;637.90;;
75156;SDS011;63736;50.076;8.198;2023-05-21T01:56:20;1570.63;;;632.10;;
75156;SDS011;63736;50.076;8.198;2023-05-21T01:58:50;1585.88;;;640.13;;
75156;SDS011;63736;50.076;8.198;2023-05-21T02:01:15;1578.43;;;637.33;;
75156;SDS011;63736;50.076;8.198;2023-05-21T02:03:41;1578.20;;;641.47;;
75156;SDS011;63736;50.076;8.198;2023-05-21T02:06:06;1573.37;;;637.00;;
75156;SDS011;63736;50.076;8.198;2023-05-21T02:08:31;1581.80;;;638.50;;
75156;SDS011;63736;50.076;8.198;2023-05-21T02:10:57;1580.07;;;641.70;;
75156;SDS011;63736;50.076;8.198;2023-05-21T02:13:22;1576.95;;;639.03;;
75156;SDS011;63736;50.076;8.198;2023-05-21T02:15:48;1576.28;;;638.08;;
75156;SDS011;63736;50.076;8.198;2023-05-21T02:18:15;1573.77;;;631.97;;
75156;SDS011;63736;50.076;8.198;2023-05-21T02:20:42;1576.45;;;639.13;;
75156;SDS011;63736;50.076;8.198;2023-05-21T02:23:08;1586.60;;;633.75;;
75156;SDS011;63736;50.076;8.198;2023-05-21T02:25:33;1573.47;;;636.43;;
75156;SDS011;63736;50.076;8.198;2023-05-21T02:27:59;1568.55;;;630.10;;
75156;SDS011;63736;50.076;8.198;2023-05-21T02:30:24;1576.77;;;634.33;;
75156;SDS011;63736;50.076;8.198;2023-05-21T02:32:50;1578.53;;;637.33;;
75156;SDS011;63736;50.076;8.198;2023-05-21T02:35:15;1579.53;;;635.65;;
75156;SDS011;63736;50.076;8.198;2023-05-21T02:37:41;1578.20;;;634.90;;
75156;SDS011;63736;50.076;8.198;2023-05-21T02:40:08;1581.43;;;640.65;;
75156;SDS011;63736;50.076;8.198;2023-05-21T02:42:34;1566.37;;;633.73;;
75156;SDS011;63736;50.076;8.198;2023-05-21T02:45:00;1569.32;;;632.42;;
75156;SDS011;63736;50.076;8.198;2023-05-21T02:47:26;1579.38;;;640.25;;
75156;SDS011;63736;50.076;8.198;2023-05-21T02:49:51;1574.10;;;637.93;;
75156;SDS011;63736;50.076;8.198;2023-05-21T02:52:17;1580.00;;;637.23;;
75156;SDS011;63736;50.076;8.198;2023-05-21T02:54:44;1573.43;;;636.35;;
75156;SDS011;63736;50.076;8.198;2023-05-21T02:57:09;1578.55;;;635.53;;
75156;SDS011;63736;50.076;8.198;2023-05-21T02:59:35;1564.33;;;634.70;;
75156;SDS011;63736;50.076;8.198;2023-05-21T03:02:00;1565.80;;;634.67;;
75156;SDS011;63736;50.076;8.198;2023-05-21T03:04:26;1567.45;;;635.78;;
75156;SDS011;63736;50.076;8.198;2023-05-21T03:06:52;1575.13;;;639.50;;
75156;SDS011;63736;50.076;8.198;2023-05-21T03:09:19;1563.40;;;635.22;;
75156;SDS011;63736;50.076;8.198;2023-05-21T03:11:47;1577.38;;;640.75;;
75156;SDS011;63736;50.076;8.198;2023-05-21T03:14:13;1564.50;;;634.20;;
75156;SDS011;63736;50.076;8.198;2023-05-21T03:16:38;1574.63;;;639.10;;
75156;SDS011;63736;50.076;8.198;2023-05-21T03:19:05;1567.82;;;639.83;;
75156;SDS011;63736;50.076;8.198;2023-05-21T03:21:31;1568.72;;;641.58;;
75156;SDS011;63736;50.076;8.198;2023-05-21T03:23:57;1561.47;;;637.83;;
75156;SDS011;63736;50.076;8.198;2023-05-21T03:26:23;1568.80;;;631.85;;
75156;SDS011;63736;50.076;8.198;2023-05-21T03:28:51;1566.83;;;635.17;;
75156;SDS011;63736;50.076;8.198;2023-05-21T03:31:16;1562.03;;;635.95;;
75156;SDS011;63736;50.076;8.198;2023-05-21T03:33:42;1569.73;;;634.37;;
75156;SDS011;63736;50.076;8.198;2023-05-21T03:36:07;1563.87;;;637.03;;
75156;SDS011;63736;50.076;8.198;2023-05-21T03:38:32;1565.80;;;630.97;;
75156;SDS011;63736;50.076;8.198;2023-05-21T03:40:58;1566.53;;;636.33;;
75156;SDS011;63736;50.076;8.198;2023-05-21T03:43:23;1553.87;;;630.03;;
75156;SDS011;63736;50.076;8.198;2023-05-21T03:45:48;1558.30;;;633.47;;
75156;SDS011;63736;50.076;8.198;2023-05-21T03:48:13;1577.50;;;641.40;;
75156;SDS011;63736;50.076;8.198;2023-05-21T03:50:39;1569.70;;;636.17;;
75156;SDS011;63736;50.076;8.198;2023-05-21T03:53:05;1555.07;;;633.28;;
75156;SDS011;63736;50.076;8.198;2023-05-21T03:55:30;1564.10;;;635.27;;
75156;SDS011;63736;50.076;8.198;2023-05-21T03:57:55;1554.23;;;637.47;;
75156;SDS011;63736;50.076;8.198;2023-05-21T04:00:21;1559.87;;;638.60;;
75156;SDS011;63736;50.076;8.198;2023-05-21T04:02:46;1571.40;;;640.90;;
75156;SDS011;63736;50.076;8.198;2023-05-21T04:05:11;1563.53;;;634.60;;
75156;SDS011;63736;50.076;8.198;2023-05-21T04:07:36;1550.93;;;631.57;;
75156;SDS011;63736;50.076;8.198;2023-05-21T04:10:02;1563.60;;;635.43;;
75156;SDS011;63736;50.076;8.198;2023-05-21T04:12:28;1563.43;;;636.78;;
75156;SDS011;63736;50.076;8.198;2023-05-21T04:14:53;1567.67;;;636.87;;
75156;SDS011;63736;50.076;8.198;2023-05-21T04:17:18;1563.07;;;634.30;;
75156;SDS011;63736;50.076;8.198;2023-05-21T04:19:44;1558.18;;;633.50;;
75156;SDS011;63736;50.076;8.198;2023-05-21T04:22:10;1567.17;;;636.70;;
75156;SDS011;63736;50.076;8.198;2023-05-21T04:24:38;1575.00;;;642.55;;
75156;SDS011;63736;50.076;8.198;2023-05-21T04:27:04;1558.47;;;634.80;;
75156;SDS011;63736;50.076;8.198;2023-05-21T04:29:29;1560.65;;;631.78;;
75156;SDS011;63736;50.076;8.198;2023-05-21T04:31:55;1565.07;;;634.20;;
75156;SDS011;63736;50.076;8.198;2023-05-21T04:34:20;1559.85;;;637.75;;
75156;SDS011;63736;50.076;8.198;2023-05-21T04:36:45;1564.97;;;634.90;;
75156;SDS011;63736;50.076;8.198;2023-05-21T04:39:12;1550.07;;;631.10;;
75156;SDS011;63736;50.076;8.198;2023-05-21T04:41:38;1564.10;;;634.17;;
75156;SDS011;63736;50.076;8.198;2023-05-21T04:44:05;1568.63;;;633.67;;
75156;SDS011;63736;50.076;8.198;2023-05-21T04:46:31;1578.07;;;637.83;;
75156;SDS011;63736;50.076;8.198;2023-05-21T04:48:58;1569.75;;;635.05;;
75156;SDS011;63736;50.076;8.198;2023-05-21T04:51:26;1581.47;;;635.80;;
75156;SDS011;63736;50.076;8.198;2023-05-21T04:53:55;1571.85;;;631.08;;
75156;SDS011;63736;50.076;8.198;2023-05-21T04:56:22;1595.68;;;641.53;;
75156;SDS011;63736;50.076;8.198;2023-05-21T04:58:50;1593.07;;;636.73;;
75156;SDS011;63736;50.076;8.198;2023-05-21T05:01:26;1604.32;;;641.10;;
75156;SDS011;63736;50.076;8.198;2023-05-21T05:03:55;1611.93;;;637.58;;
75156;SDS011;63736;50.076;8.198;2023-05-21T05:06:20;1612.82;;;642.92;;
75156;SDS011;63736;50.076;8.198;2023-05-21T05:08:46;1625.53;;;645.30;;
75156;SDS011;63736;50.076;8.198;2023-05-21T05:11:11;1620.77;;;638.80;;
75156;SDS011;63736;50.076;8.198;2023-05-21T05:13:38;1648.22;;;648.47;;
75156;SDS011;63736;50.076;8.198;2023-05-21T05:16:05;1660.53;;;659.55;;
75156;SDS011;63736;50.076;8.198;2023-05-21T05:18:31;1689.03;;;669.03;;
75156;SDS011;63736;50.076;8.198;2023-05-21T05:20:57;1696.88;;;674.28;;
75156;SDS011;63736;50.076;8.198;2023-05-21T05:23:23;1687.53;;;666.03;;
75156;SDS011;63736;50.076;8.198;2023-05-21T05:25:48;1689.00;;;662.97;;
75156;SDS011;63736;50.076;8.198;2023-05-21T05:28:13;1699.03;;;670.67;;
75156;SDS011;63736;50.076;8.198;2023-05-21T05:30:39;1704.60;;;671.57;;
75156;SDS011;63736;50.076;8.198;2023-05-21T05:33:04;1706.32;;;667.25;;
75156;SDS011;63736;50.076;8.198;2023-05-21T05:35:29;1712.13;;;670.40;;
75156;SDS011;63736;50.076;8.198;2023-05-21T05:37:55;1706.93;;;672.13;;
75156;SDS011;63736;50.076;8.198;2023-05-21T05:40:20;1718.47;;;671.60;;
75156;SDS011;63736;50.076;8.198;2023-05-21T05:42:45;1725.20;;;668.90;;
75156;SDS011;63736;50.076;8.198;2023-05-21T05:45:13;1742.93;;;672.10;;
75156;SDS011;63736;50.076;8.198;2023-05-21T05:47:38;1783.10;;;704.93;;
75156;SDS011;63736;50.076;8.198;2023-05-21T05:50:13;1793.20;;;716.93;;
75156;SDS011;63736;50.076;8.198;2023-05-21T05:52:38;1786.50;;;710.88;;
75156;SDS011;63736;50.076;8.198;2023-05-21T05:55:03;1797.93;;;723.33;;
75156;SDS011;63736;50.076;8.198;2023-05-21T05:57:29;1782.80;;;708.92;;
75156;SDS011;63736;50.076;8.198;2023-05-21T05:59:54;1784.30;;;697.60;;
75156;SDS011;63736;50.076;8.198;2023-05-21T06:02:20;1791.47;;;697.90;;
75156;SDS011;63736;50.076;8.198;2023-05-21T06:04:45;1825.05;;;719.15;;
75156;SDS011;63736;50.076;8.198;2023-05-21T06:07:11;1819.63;;;696.73;;
75156;SDS011;63736;50.076;8.198;2023-05-21T06:09:36;1880.23;;;739.57;;
75156;SDS011;63736;50.076;8.198;2023-05-21T06:12:08;1930.18;;;917.47;;
75156;SDS011;63736;50.076;8.198;2023-05-21T06:14:34;1938.97;;;830.58;;
75156;SDS011;63736;50.076;8.198;2023-05-21T06:16:59;1962.30;;;781.57;;
75156;SDS011;63736;50.076;8.198;2023-05-21T06:19:25;1948.50;;;717.13;;
75156;SDS011;63736;50.076;8.198;2023-05-21T06:21:50;1995.63;;;727.70;;
75156;SDS011;63736;50.076;8.198;2023-05-21T06:24:15;1999.90;;;734.77;;
75156;SDS011;63736;50.076;8.198;2023-05-21T06:26:40;1999.90;;;694.83;;
75156;SDS011;63736;50.076;8.198;2023-05-21T06:29:06;1999.90;;;694.43;;
75156;SDS011;63736;50.076;8.198;2023-05-21T06:31:32;1999.90;;;692.97;;
75156;SDS011;63736;50.076;8.198;2023-05-21T06:34:02;1999.90;;;697.07;;
75156;SDS011;63736;50.076;8.198;2023-05-21T06:36:28;1999.90;;;702.42;;
75156;SDS011;63736;50.076;8.198;2023-05-21T06:38:57;1999.90;;;710.30;;
75156;SDS011;63736;50.076;8.198;2023-05-21T06:41:22;1999.90;;;704.88;;
75156;SDS011;63736;50.076;8.198;2023-05-21T06:43:48;1999.90;;;703.85;;
75156;SDS011;63736;50.076;8.198;2023-05-21T06:46:13;1999.90;;;707.50;;
75156;SDS011;63736;50.076;8.198;2023-05-21T06:48:39;1999.90;;;696.47;;
75156;SDS011;63736;50.076;8.198;2023-05-21T06:51:05;1999.90;;;704.67;;
75156;SDS011;63736;50.076;8.198;2023-05-21T06:53:30;1999.90;;;693.83;;
75156;SDS011;63736;50.076;8.198;2023-05-21T06:55:56;1999.90;;;690.30;;
75156;SDS011;63736;50.076;8.198;2023-05-21T06:58:21;1999.90;;;691.95;;
75156;SDS011;63736;50.076;8.198;2023-05-21T07:00:54;1999.90;;;686.57;;
75156;SDS011;63736;50.076;8.198;2023-05-21T07:03:26;1999.90;;;693.25;;
75156;SDS011;63736;50.076;8.198;2023-05-21T07:06:04;1999.90;;;690.42;;
75156;SDS011;63736;50.076;8.198;2023-05-21T07:08:41;1999.90;;;694.60;;
75156;SDS011;63736;50.076;8.198;2023-05-21T07:11:24;1999.90;;;703.40;;
75156;SDS011;63736;50.076;8.198;2023-05-21T07:14:00;1999.90;;;729.00;;
75156;SDS011;63736;50.076;8.198;2023-05-21T07:16:49;1999.90;;;739.53;;
75156;SDS011;63736;50.076;8.198;2023-05-21T07:19:15;1999.90;;;750.60;;
75156;SDS011;63736;50.076;8.198;2023-05-21T07:21:40;1999.90;;;888.60;;
75156;SDS011;63736;50.076;8.198;2023-05-21T07:24:05;1999.90;;;887.87;;
75156;SDS011;63736;50.076;8.198;2023-05-21T07:26:31;1999.90;;;924.88;;
75156;SDS011;63736;50.076;8.198;2023-05-21T07:28:56;1999.90;;;936.07;;
75156;SDS011;63736;50.076;8.198;2023-05-21T07:31:21;1999.90;;;981.70;;
75156;SDS011;63736;50.076;8.198;2023-05-21T07:33:47;1999.90;;;988.47;;
75156;SDS011;63736;50.076;8.198;2023-05-21T07:36:12;1999.90;;;943.33;;
75156;SDS011;63736;50.076;8.198;2023-05-21T07:38:38;1999.90;;;961.38;;
75156;SDS011;63736;50.076;8.198;2023-05-21T07:41:04;1999.90;;;940.00;;
75156;SDS011;63736;50.076;8.198;2023-05-21T07:43:30;1999.90;;;939.45;;
75156;SDS011;63736;50.076;8.198;2023-05-21T07:45:55;1999.90;;;940.93;;
75156;SDS011;63736;50.076;8.198;2023-05-21T07:48:21;1999.90;;;932.00;;
75156;SDS011;63736;50.076;8.198;2023-05-21T07:50:46;1999.90;;;929.80;;
75156;SDS011;63736;50.076;8.198;2023-05-21T07:53:16;1999.90;;;914.93;;
75156;SDS011;63736;50.076;8.198;2023-05-21T07:55:41;1999.90;;;897.83;;
75156;SDS011;63736;50.076;8.198;2023-05-21T07:58:12;1999.90;;;893.63;;
75156;SDS011;63736;50.076;8.198;2023-05-21T08:00:42;1999.90;;;887.65;;
75156;SDS011;63736;50.076;8.198;2023-05-21T08:03:12;1999.90;;;875.83;;
75156;SDS011;63736;50.076;8.198;2023-05-21T08:05:38;1999.90;;;877.07;;
75156;SDS011;63736;50.076;8.198;2023-05-21T08:08:06;1999.90;;;868.97;;
75156;SDS011;63736;50.076;8.198;2023-05-21T08:10:31;1999.90;;;865.73;;
75156;SDS011;63736;50.076;8.198;2023-05-21T08:12:56;1999.90;;;866.37;;
75156;SDS011;63736;50.076;8.198;2023-05-21T08:15:22;1999.90;;;859.03;;
75156;SDS011;63736;50.076;8.198;2023-05-21T08:17:50;1999.90;;;857.80;;
75156;SDS011;63736;50.076;8.198;2023-05-21T08:20:15;1999.90;;;854.35;;
75156;SDS011;63736;50.076;8.198;2023-05-21T08:22:41;1999.90;;;851.33;;
75156;SDS011;63736;50.076;8.198;2023-05-21T08:25:07;1999.90;;;854.97;;
75156;SDS011;63736;50.076;8.198;2023-05-21T08:27:33;1999.90;;;846.45;;
75156;SDS011;63736;50.076;8.198;2023-05-21T08:29:58;1999.90;;;842.00;;
75156;SDS011;63736;50.076;8.198;2023-05-21T08:32:23;1999.90;;;839.17;;
75156;SDS011;63736;50.076;8.198;2023-05-21T08:34:49;1999.90;;;837.43;;
75156;SDS011;63736;50.076;8.198;2023-05-21T08:37:14;1999.90;;;828.93;;
75156;SDS011;63736;50.076;8.198;2023-05-21T08:39:39;1999.90;;;832.00;;
75156;SDS011;63736;50.076;8.198;2023-05-21T08:42:14;1999.90;;;829.87;;
75156;SDS011;63736;50.076;8.198;2023-05-21T08:44:48;1999.90;;;827.45;;
75156;SDS011;63736;50.076;8.198;2023-05-21T08:47:16;1999.90;;;822.97;;
75156;SDS011;63736;50.076;8.198;2023-05-21T08:49:50;1999.90;;;821.50;;
75156;SDS011;63736;50.076;8.198;2023-05-21T08:52:16;1999.90;;;823.05;;
75156;SDS011;63736;50.076;8.198;2023-05-21T08:54:42;1999.90;;;818.77;;
75156;SDS011;63736;50.076;8.198;2023-05-21T08:57:09;1999.90;;;817.45;;
75156;SDS011;63736;50.076;8.198;2023-05-21T08:59:35;1999.90;;;816.88;;
75156;SDS011;63736;50.076;8.198;2023-05-21T09:02:03;1999.90;;;817.25;;
75156;SDS011;63736;50.076;8.198;2023-05-21T09:04:29;1999.90;;;813.10;;
75156;SDS011;63736;50.076;8.198;2023-05-21T09:06:55;1999.90;;;808.40;;
75156;SDS011;63736;50.076;8.198;2023-05-21T09:09:33;1999.90;;;810.25;;
75156;SDS011;63736;50.076;8.198;2023-05-21T09:12:02;1999.90;;;805.22;;
75156;SDS011;63736;50.076;8.198;2023-05-21T09:14:28;1999.90;;;799.30;;
75156;SDS011;63736;50.076;8.198;2023-05-21T09:16:53;1999.90;;;803.13;;
75156;SDS011;63736;50.076;8.198;2023-05-21T09:19:19;1999.90;;;801.03;;
75156;SDS011;63736;50.076;8.198;2023-05-21T09:21:46;1999.90;;;799.13;;
75156;SDS011;63736;50.076;8.198;2023-05-21T09:24:11;1999.90;;;794.53;;
75156;SDS011;63736;50.076;8.198;2023-05-21T09:26:41;1999.90;;;798.90;;
75156;SDS011;63736;50.076;8.198;2023-05-21T09:29:07;1999.90;;;792.88;;
75156;SDS011;63736;50.076;8.198;2023-05-21T09:31:32;1999.90;;;793.63;;
75156;SDS011;63736;50.076;8.198;2023-05-21T09:33:57;1999.90;;;792.57;;
75156;SDS011;63736;50.076;8.198;2023-05-21T09:36:22;1999.90;;;787.80;;
75156;SDS011;63736;50.076;8.198;2023-05-21T09:38:48;1999.90;;;787.58;;
75156;SDS011;63736;50.076;8.198;2023-05-21T09:41:15;1999.90;;;792.63;;
75156;SDS011;63736;50.076;8.198;2023-05-21T09:43:41;1999.90;;;789.50;;
75156;SDS011;63736;50.076;8.198;2023-05-21T09:46:08;1999.90;;;788.53;;
75156;SDS011;63736;50.076;8.198;2023-05-21T09:48:34;1999.90;;;784.70;;
75156;SDS011;63736;50.076;8.198;2023-05-21T09:53:55;1999.90;;;779.80;;
75156;SDS011;63736;50.076;8.198;2023-05-21T09:56:24;1999.90;;;784.22;;
75156;SDS011;63736;50.076;8.198;2023-05-21T09:59:02;1999.90;;;785.83;;
75156;SDS011;63736;50.076;8.198;2023-05-21T10:01:31;1999.90;;;785.47;;
75156;SDS011;63736;50.076;8.198;2023-05-21T10:04:01;1999.90;;;785.28;;
75156;SDS011;63736;50.076;8.198;2023-05-21T10:06:30;1999.90;;;788.72;;
75156;SDS011;63736;50.076;8.198;2023-05-21T10:09:01;1999.90;;;786.00;;
75156;SDS011;63736;50.076;8.198;2023-05-21T10:11:30;1999.90;;;791.30;;
75156;SDS011;63736;50.076;8.198;2023-05-21T10:14:05;1999.90;;;787.60;;
75156;SDS011;63736;50.076;8.198;2023-05-21T10:16:33;1999.90;;;789.45;;
75156;SDS011;63736;50.076;8.198;2023-05-21T10:19:00;1999.90;;;785.65;;
75156;SDS011;63736;50.076;8.198;2023-05-21T10:21:26;1999.90;;;788.05;;
75156;SDS011;63736;50.076;8.198;2023-05-21T10:23:57;1999.90;;;783.40;;
75156;SDS011;63736;50.076;8.198;2023-05-21T10:26:22;1999.90;;;784.10;;
75156;SDS011;63736;50.076;8.198;2023-05-21T10:28:50;1999.90;;;787.67;;
75156;SDS011;63736;50.076;8.198;2023-05-21T10:31:16;1999.90;;;782.10;;
75156;SDS011;63736;50.076;8.198;2023-05-21T10:33:42;1999.90;;;780.43;;
75156;SDS011;63736;50.076;8.198;2023-05-21T10:36:07;1999.90;;;778.45;;
75156;SDS011;63736;50.076;8.198;2023-05-21T10:38:33;1999.90;;;775.45;;
75156;SDS011;63736;50.076;8.198;2023-05-21T10:41:00;1999.90;;;776.23;;
75156;SDS011;63736;50.076;8.198;2023-05-21T10:46:35;1999.90;;;772.38;;
75156;SDS011;63736;50.076;8.198;2023-05-21T10:57:50;1999.90;;;760.47;;
75156;SDS011;63736;50.076;8.198;2023-05-21T11:00:41;1999.90;;;760.58;;
75156;SDS011;63736;50.076;8.198;2023-05-21T11:03:07;1999.90;;;762.83;;
75156;SDS011;63736;50.076;8.198;2023-05-21T11:05:37;1999.90;;;753.50;;
75156;SDS011;63736;50.076;8.198;2023-05-21T11:10:57;1999.90;;;753.72;;
75156;SDS011;63736;50.076;8.198;2023-05-21T11:13:23;1999.90;;;759.33;;
75156;SDS011;63736;50.076;8.198;2023-05-21T11:21:02;1999.90;;;748.70;;
75156;SDS011;63736;50.076;8.198;2023-05-21T11:26:20;1999.90;;;747.80;;
75156;SDS011;63736;50.076;8.198;2023-05-21T11:31:29;1999.90;;;752.33;;
75156;SDS011;63736;50.076;8.198;2023-05-21T11:34:11;1999.90;;;744.45;;
75156;SDS011;63736;50.076;8.198;2023-05-21T11:36:44;1999.90;;;744.10;;
75156;SDS011;63736;50.076;8.198;2023-05-21T11:39:17;1999.90;;;741.78;;
75156;SDS011;63736;50.076;8.198;2023-05-21T11:44:42;1999.90;;;740.23;;
75156;SDS011;63736;50.076;8.198;2023-05-21T11:47:11;1999.90;;;744.38;;
75156;SDS011;63736;50.076;8.198;2023-05-21T11:49:45;1999.90;;;744.75;;
75156;SDS011;63736;50.076;8.198;2023-05-21T11:52:11;1999.90;;;735.57;;
75156;SDS011;63736;50.076;8.198;2023-05-21T11:54:50;1999.90;;;743.78;;
75156;SDS011;63736;50.076;8.198;2023-05-21T11:57:26;1999.90;;;738.45;;
75156;SDS011;63736;50.076;8.198;2023-05-21T11:59:55;1999.90;;;735.80;;
75156;SDS011;63736;50.076;8.198;2023-05-21T12:02:23;1999.90;;;732.63;;
75156;SDS011;63736;50.076;8.198;2023-05-21T12:04:55;1999.90;;;735.00;;
75156;SDS011;63736;50.076;8.198;2023-05-21T12:07:27;1999.90;;;736.40;;
75156;SDS011;63736;50.076;8.198;2023-05-21T12:09:54;1999.90;;;733.63;;
75156;SDS011;63736;50.076;8.198;2023-05-21T12:12:20;1999.90;;;741.67;;
75156;SDS011;63736;50.076;8.198;2023-05-21T12:14:48;1999.90;;;736.10;;
75156;SDS011;63736;50.076;8.198;2023-05-21T12:17:15;1999.90;;;734.63;;
75156;SDS011;63736;50.076;8.198;2023-05-21T12:19:42;1999.90;;;737.03;;
75156;SDS011;63736;50.076;8.198;2023-05-21T12:22:08;1999.90;;;742.95;;
75156;SDS011;63736;50.076;8.198;2023-05-21T12:24:34;1999.90;;;739.27;;
75156;SDS011;63736;50.076;8.198;2023-05-21T12:27:01;1999.90;;;732.50;;
75156;SDS011;63736;50.076;8.198;2023-05-21T12:29:36;1999.90;;;737.38;;
75156;SDS011;63736;50.076;8.198;2023-05-21T12:32:03;1999.90;;;738.75;;
75156;SDS011;63736;50.076;8.198;2023-05-21T12:34:43;1999.90;;;739.60;;
75156;SDS011;63736;50.076;8.198;2023-05-21T12:37:30;1999.90;;;745.30;;
75156;SDS011;63736;50.076;8.198;2023-05-21T12:40:00;1999.90;;;741.37;;
75156;SDS011;63736;50.076;8.198;2023-05-21T12:42:31;1999.90;;;743.13;;
75156;SDS011;63736;50.076;8.198;2023-05-21T12:45:07;1999.90;;;746.53;;
75156;SDS011;63736;50.076;8.198;2023-05-21T12:47:41;1999.90;;;744.60;;
75156;SDS011;63736;50.076;8.198;2023-05-21T12:50:12;1999.90;;;746.20;;
75156;SDS011;63736;50.076;8.198;2023-05-21T12:52:38;1999.90;;;743.07;;
75156;SDS011;63736;50.076;8.198;2023-05-21T12:55:04;1999.90;;;748.80;;
75156;SDS011;63736;50.076;8.198;2023-05-21T12:57:39;1999.90;;;746.37;;
75156;SDS011;63736;50.076;8.198;2023-05-21T13:00:04;1999.90;;;738.80;;
75156;SDS011;63736;50.076;8.198;2023-05-21T13:02:37;1999.90;;;742.33;;
75156;SDS011;63736;50.076;8.198;2023-05-21T13:05:08;1999.90;;;741.37;;
75156;SDS011;63736;50.076;8.198;2023-05-21T13:07:35;1999.90;;;740.88;;
75156;SDS011;63736;50.076;8.198;2023-05-21T13:10:02;1999.90;;;738.65;;
75156;SDS011;63736;50.076;8.198;2023-05-21T13:12:29;1999.90;;;737.13;;
75156;SDS011;63736;50.076;8.198;2023-05-21T13:14:57;1999.90;;;732.40;;
75156;SDS011;63736;50.076;8.198;2023-05-21T13:17:24;1999.90;;;732.77;;
75156;SDS011;63736;50.076;8.198;2023-05-21T13:22:37;1999.90;;;728.47;;
75156;SDS011;63736;50.076;8.198;2023-05-21T13:25:06;1999.90;;;736.28;;
75156;SDS011;63736;50.076;8.198;2023-05-21T13:27:32;1999.90;;;732.85;;
75156;SDS011;63736;50.076;8.198;2023-05-21T13:30:00;1999.90;;;736.10;;
75156;SDS011;63736;50.076;8.198;2023-05-21T13:32:26;1999.90;;;733.53;;
75156;SDS011;63736;50.076;8.198;2023-05-21T13:35:00;1999.90;;;735.60;;
75156;SDS011;63736;50.076;8.198;2023-05-21T13:37:26;1999.90;;;734.95;;
75156;SDS011;63736;50.076;8.198;2023-05-21T13:39:51;1999.90;;;735.70;;
75156;SDS011;63736;50.076;8.198;2023-05-21T13:42:26;1999.90;;;734.07;;
75156;SDS011;63736;50.076;8.198;2023-05-21T13:45:13;1999.90;;;735.30;;
75156;SDS011;63736;50.076;8.198;2023-05-21T13:47:40;1999.90;;;736.97;;
75156;SDS011;63736;50.076;8.198;2023-05-21T13:50:10;1999.90;;;732.13;;
75156;SDS011;63736;50.076;8.198;2023-05-21T13:52:36;1999.90;;;736.33;;
75156;SDS011;63736;50.076;8.198;2023-05-21T13:55:02;1999.90;;;734.53;;
75156;SDS011;63736;50.076;8.198;2023-05-21T13:57:34;1999.90;;;738.38;;
75156;SDS011;63736;50.076;8.198;2023-05-21T13:59:59;1999.90;;;730.63;;
75156;SDS011;63736;50.076;8.198;2023-05-21T14:02:27;1999.90;;;732.80;;
75156;SDS011;63736;50.076;8.198;2023-05-21T14:04:53;1999.90;;;730.57;;
75156;SDS011;63736;50.076;8.198;2023-05-21T14:07:18;1999.90;;;732.43;;
75156;SDS011;63736;50.076;8.198;2023-05-21T14:09:43;1999.90;;;723.43;;
75156;SDS011;63736;50.076;8.198;2023-05-21T14:12:09;1999.90;;;727.75;;
75156;SDS011;63736;50.076;8.198;2023-05-21T14:14:34;1999.90;;;724.47;;
75156;SDS011;63736;50.076;8.198;2023-05-21T14:17:00;1999.90;;;731.00;;
75156;SDS011;63736;50.076;8.198;2023-05-21T14:19:25;1999.90;;;726.35;;